»·PEaware :: QXE2209 KPDX-KMFR

QXE2209 :: KPDX-KMFR

FLIGHT INFORMATION

Flight Status: Arrived
Operator:
Horizon Air
More flights by this operator :: More flights under this callsign
Pilot: Mattia C. (24842)
Aircraft: DEHAVILLAND DASH 8 400
(DH8D)
More flights by this aircraft type
Origin: KPDX Portland Intl
United States
Destination: KMFR Rogue Valley Intl-Medford
United States
More flights between these airports :: More routes between these airports
Route: +EUG OED
File this flight plan on PilotEdge
Remarks: RMK / SIMBRIEF
Altitude:
(Current/Filed)
19,000ft
Speed:
(Current/Filed)
322kts
Departed: 01-Jun-19 10:52 AM
Arrived: 01-Jun-19 11:36 AM
Distance/Time
Traveled:
194nm/0:43
Distance/Time
To Go:
Arrived

Flight Plot

Page will automatically refresh every two minutes.

Flight plan parsing failed; only flown route is shown


Map Options




Map Legend


Flown Route
Filed Route
Departure Airport
Arrival Airport
Navaid (VOR, NDB)
Fix

Horizontal Profiles

Position Reports

Time Latitude Longitude Heading Altitude Ground
Speed
01-Jun-19 10:30 45.591071 -122.593654 180 37ft 0kts
01-Jun-19 10:31 45.591071 -122.593654 180 37ft 0kts
01-Jun-19 10:32 45.591071 -122.593654 180 37ft 0kts
01-Jun-19 10:33 45.591071 -122.593654 180 37ft 0kts
01-Jun-19 10:34 45.591071 -122.593654 180 37ft 0kts
01-Jun-19 10:35 45.591071 -122.593654 180 37ft 0kts
01-Jun-19 10:36 45.591071 -122.593654 180 37ft 0kts
01-Jun-19 10:37 45.591071 -122.593654 180 37ft 0kts
01-Jun-19 10:38 45.591071 -122.593654 180 37ft 0kts
01-Jun-19 10:39 45.591071 -122.593654 180 37ft 0kts
01-Jun-19 10:40 45.591071 -122.593654 180 37ft 0kts
01-Jun-19 10:41 45.591071 -122.593654 180 37ft 0kts
01-Jun-19 10:42 45.591885 -122.593644 181 37ft 3kts
01-Jun-19 10:43 45.592001 -122.593639 181 37ft 0kts
01-Jun-19 10:44 45.592001 -122.593639 181 37ft 0kts
01-Jun-19 10:45 45.592001 -122.593639 181 37ft 0kts
01-Jun-19 10:46 45.591735 -122.593141 118 37ft 9kts
01-Jun-19 10:47 45.589580 -122.586659 87 37ft 21kts
01-Jun-19 10:48 45.586853 -122.578460 119 37ft 27kts
01-Jun-19 10:49 45.586192 -122.576563 48 37ft 0kts
01-Jun-19 10:50 45.586175 -122.576591 48 37ft 0kts
01-Jun-19 10:51 45.588725 -122.580144 299 37ft 84kts
01-Jun-19 10:52 45.605845 -122.629062 297 1716ft 161kts
01-Jun-19 10:53 45.625539 -122.693620 289 4269ft 183kts
01-Jun-19 10:54 45.591362 -122.734908 185 6798ft 202kts
01-Jun-19 10:55 45.541877 -122.770636 216 9136ft 206kts
01-Jun-19 10:56 45.492641 -122.821610 215 10801ft 246kts
01-Jun-19 10:57 45.432946 -122.883497 215 11988ft 277kts
01-Jun-19 10:58 45.362699 -122.923883 188 13320ft 285kts
01-Jun-19 10:59 45.283988 -122.943034 189 14500ft 292kts
01-Jun-19 11:00 45.203621 -122.962732 189 15552ft 298kts
01-Jun-19 11:01 45.121022 -122.982963 189 16515ft 304kts
01-Jun-19 11:02 45.039203 -123.002468 189 17327ft 308kts
01-Jun-19 11:03 44.954421 -123.023019 189 18094ft 312kts
01-Jun-19 11:04 44.868683 -123.043860 189 18608ft 317kts
01-Jun-19 11:05 44.782375 -123.064824 189 19045ft 327kts
01-Jun-19 11:06 44.692284 -123.086614 189 19080ft 343kts
01-Jun-19 11:07 44.596218 -123.109758 189 19082ft 353kts
01-Jun-19 11:08 44.497659 -123.133392 189 19081ft 359kts
01-Jun-19 11:09 44.401223 -123.156442 189 19081ft 362kts
01-Jun-19 11:10 44.301690 -123.180137 189 19078ft 363kts
01-Jun-19 11:11 44.201321 -123.203891 189 19075ft 364kts
01-Jun-19 11:12 44.129721 -123.220483 186 19079ft 364kts
01-Jun-19 11:13 44.030443 -123.205959 169 19074ft 364kts
01-Jun-19 11:14 43.931407 -123.186198 170 19072ft 366kts
01-Jun-19 11:15 43.831913 -123.167412 171 19068ft 368kts
01-Jun-19 11:16 43.733031 -123.148334 170 19062ft 368kts
01-Jun-19 11:17 43.632745 -123.129162 170 19056ft 369kts
01-Jun-19 11:18 43.533231 -123.110178 170 19052ft 369kts
01-Jun-19 11:19 43.432129 -123.090934 171 18390ft 370kts
01-Jun-19 11:20 43.333016 -123.072140 171 17023ft 367kts
01-Jun-19 11:21 43.233865 -123.053484 171 15645ft 364kts
01-Jun-19 11:22 43.134623 -123.035087 171 14244ft 356kts
01-Jun-19 11:23 43.042551 -123.017502 171 12898ft 341kts
01-Jun-19 11:24 42.953350 -123.000896 170 11974ft 313kts
01-Jun-19 11:25 42.869846 -123.003029 185 10613ft 306kts
01-Jun-19 11:26 42.786780 -123.015344 185 9127ft 301kts
01-Jun-19 11:27 42.708409 -123.025059 178 7714ft 266kts
01-Jun-19 11:28 42.640762 -123.008451 163 6514ft 228kts
01-Jun-19 11:29 42.583829 -122.982781 158 5408ft 204kts
01-Jun-19 11:30 42.533412 -122.956187 158 4391ft 181kts
01-Jun-19 11:31 42.491960 -122.934976 156 3565ft 164kts
01-Jun-19 11:32 42.450059 -122.912777 156 2712ft 142kts
01-Jun-19 11:33 42.413715 -122.893619 157 1890ft 138kts
01-Jun-19 11:34 42.379826 -122.875776 158 1343ft 104kts
01-Jun-19 11:35 42.369471 -122.871252 254 1342ft 7kts
01-Jun-19 11:36 42.369388 -122.871607 241 1342ft 5kts
01-Jun-19 11:37 42.369105 -122.873274 277 1342ft 1kts
01-Jun-19 11:38 42.369108 -122.873312 277 1342ft 0kts
01-Jun-19 11:39 42.369108 -122.873312 277 1342ft 0kts
01-Jun-19 11:40 42.369108 -122.873312 277 1342ft 0kts
01-Jun-19 11:41 42.369108 -122.873312 277 1342ft 0kts
01-Jun-19 11:42 42.369108 -122.873312 277 1342ft 0kts
01-Jun-19 11:43 42.369108 -122.873312 277 1342ft 0kts
01-Jun-19 11:44 42.369108 -122.873312 277 1342ft 0kts
01-Jun-19 11:45 42.369108 -122.873312 277 1342ft 0kts
01-Jun-19 11:46 42.369108 -122.873312 277 1342ft 0kts
01-Jun-19 11:47 42.369108 -122.873312 277 1342ft 0kts
01-Jun-19 11:48 42.369108 -122.873312 277 1342ft 0kts
01-Jun-19 11:49 42.369108 -122.873312 277 1342ft 0kts

Navigation Log

Ident Type
Flight plan parsing failed, navigation log unavailable